King Barley — 3FMD8 — position and weather

sailwx.info

Track history (hours):
 
Tides and Currents Weather Stations Pressure Air Temp Water Temp Dewpoint Dewpoint Depression Visibility Wind Speed Wind Dir Waves Ship Positions

King Barley

Last reported at 2017-Nov-26 08:17 UTC. Time now 2017-Dec-14 02:42 UTC.
Position N 49°41' W 003°53'.
Warning: this ship's position is 17 days out of date.

Length 229 m; draft 7.2 m.

Type: Cargo ship. MMSI: 373049000.

Date/timePositionNaut miles runAvg speedWind from/ knotsBaromVisibWave heightAir tempDewpointWater temp
2017-Nov-26 08:17N 49°41' W 003°53'413.7
2017-Nov-26 08:00N 49°42' W 003°48'714.0
2017-Nov-26 07:30N 49°46' W 003°38'714.5
2017-Nov-26 07:01N 49°49' W 003°28'714.7
2017-Nov-26 06:30N 49°53' W 003°18'714.9
2017-Nov-26 06:01N 49°56' W 003°08'714.5
2017-Nov-26 05:30N 49°59' W 002°58'715.0
2017-Nov-26 05:01N 50°01' W 002°47'714.9
2017-Nov-26 04:30N 50°04' W 002°35'1814.3
2017-Nov-26 03:13N 50°09' W 002°08'613.6
2017-Nov-26 02:49N 50°10' W 001°60'413.2
2017-Nov-26 02:30N 50°11' W 001°53'612.8
2017-Nov-26 02:00N 50°13' W 001°44'612.5
2017-Nov-26 01:30N 50°14' W 001°34'611.9
2017-Nov-26 01:00N 50°15' W 001°25'611.9
2017-Nov-26 00:31N 50°16' W 001°16'1011.8
2017-Nov-25 23:40N 50°19' W 001°01'812.2
2017-Nov-25 23:02N 50°21' W 000°50'012.7
2017-Nov-25 23:00N 50°21' W 000°49'612.7
2017-Nov-25 22:30N 50°23' W 000°39'613.1
2017-Nov-25 22:00N 50°25' W 000°30'713.6
2017-Nov-25 21:30N 50°26' W 000°19'714.0
2017-Nov-25 20:58N 50°28' W 000°08'714.3
2017-Nov-25 20:30N 50°30' E 000°02'714.5
2017-Nov-25 20:00N 50°32' E 000°13'714.7
2017-Nov-25 19:31N 50°34' E 000°24'714.7
2017-Nov-25 19:00N 50°36' E 000°36'714.6
2017-Nov-25 18:31N 50°40' E 000°45'714.4
2017-Nov-25 18:00N 50°44' E 000°54'714.1
2017-Nov-25 17:30N 50°49' E 001°03'713.7
2017-Nov-25 17:00N 50°54' E 001°10'713.2
2017-Nov-25 16:30N 50°59' E 001°18'612.5
2017-Nov-25 16:00N 51°03' E 001°25'612.3
2017-Nov-25 15:30N 51°07' E 001°33'612.6
2017-Nov-25 15:01N 51°11' E 001°41'612.9
2017-Nov-25 14:30N 51°15' E 001°48'714.0
2017-Nov-25 14:00N 51°21' E 001°54'612.2
2017-Nov-25 13:30N 51°25' E 002°02'713.3
2017-Nov-25 13:00N 51°21' E 002°11'713.5
2017-Nov-25 12:31N 51°21' E 002°22'714.6
2017-Nov-25 12:00N 51°23' E 002°33'712.7
2017-Nov-25 11:27N 51°23' E 002°44'511.9
2017-Nov-25 11:00N 51°25' E 002°52'713.4
2017-Nov-25 10:30N 51°25' E 003°03'714.0
2017-Nov-25 10:01N 51°25' E 003°14'714.9
2017-Nov-25 09:30N 51°25' E 003°26'714.7
2017-Nov-25 09:01N 51°26' E 003°38'3 5.8
2017-Nov-25 08:30N 51°27' E 003°42'1 1.6
2017-Nov-25 08:00N 51°27' E 003°43'0 0.1
2017-Nov-25 07:28N 51°27' E 003°43'0 0.0
2017-Nov-25 06:58N 51°27' E 003°43'0 0.0
2017-Nov-25 06:28N 51°27' E 003°43'0 0.0
2017-Nov-25 05:58N 51°27' E 003°43'0 0.0
2017-Nov-25 05:28N 51°27' E 003°43'0 0.0
2017-Nov-25 04:58N 51°27' E 003°43'0 0.0
2017-Nov-25 04:28N 51°27' E 003°43'0 0.0
2017-Nov-25 03:58N 51°27' E 003°43'0 0.0
2017-Nov-25 03:28N 51°27' E 003°43'0 0.0
2017-Nov-25 02:58N 51°27' E 003°43'0 0.0
2017-Nov-25 02:28N 51°27' E 003°43'0 0.0
2017-Nov-25 01:58N 51°27' E 003°43'0 0.0
2017-Nov-25 01:28N 51°27' E 003°43'0 0.0
2017-Nov-25 00:55N 51°27' E 003°43'0 0.0
2017-Nov-25 00:28N 51°27' E 003°43'0 0.0
2017-Nov-24 23:58N 51°27' E 003°43'0 0.0
2017-Nov-24 23:28N 51°27' E 003°43'0 0.0
2017-Nov-24 22:58N 51°27' E 003°43'0 0.0
2017-Nov-24 22:28N 51°27' E 003°43'0 0.0
2017-Nov-24 21:58N 51°27' E 003°43'0 0.0
2017-Nov-24 21:28N 51°27' E 003°43'0 0.0
2017-Nov-24 20:58N 51°27' E 003°43'0 0.0
2017-Nov-24 20:28N 51°27' E 003°43'0 0.0
2017-Nov-24 19:58N 51°27' E 003°43'0 0.0
2017-Nov-24 19:28N 51°27' E 003°43'0 0.0
2017-Nov-24 18:58N 51°27' E 003°43'0 0.0
2017-Nov-24 18:28N 51°27' E 003°43'0 0.0
2017-Nov-24 17:58N 51°27' E 003°43'0 0.0
2017-Nov-24 17:28N 51°27' E 003°43'0 0.0
2017-Nov-24 16:58N 51°27' E 003°43'0 0.0
2017-Nov-24 16:28N 51°27' E 003°43'0 0.0
2017-Nov-24 15:58N 51°27' E 003°43'0 0.0
2017-Nov-24 15:28N 51°27' E 003°43'0 0.0
2017-Nov-24 14:58N 51°27' E 003°43'0 0.0
2017-Nov-24 14:28N 51°27' E 003°43'0 0.0
2017-Nov-24 13:58N 51°27' E 003°43'0 0.0
2017-Nov-24 13:25N 51°27' E 003°43'0 0.0
2017-Nov-24 12:58N 51°27' E 003°43'0 0.0
2017-Nov-24 12:28N 51°27' E 003°43'0 0.0
2017-Nov-24 11:52N 51°27' E 003°43'0 0.0
2017-Nov-24 11:22N 51°27' E 003°43'0 0.0
2017-Nov-24 10:58N 51°27' E 003°43'0 0.0
2017-Nov-24 10:28N 51°27' E 003°43'0 0.0
2017-Nov-24 09:58N 51°27' E 003°43'0 0.0
2017-Nov-24 09:28N 51°27' E 003°43'0 0.0
2017-Nov-24 08:58N 51°27' E 003°43'0 0.0
2017-Nov-24 08:22N 51°27' E 003°43'0 0.0
2017-Nov-24 07:58N 51°27' E 003°43'0 0.0
2017-Nov-24 07:28N 51°27' E 003°43'0 0.0
2017-Nov-24 06:52N 51°27' E 003°43'0 0.0
2017-Nov-24 06:28N 51°27' E 003°43'0 0.0
2017-Nov-24 05:58N 51°27' E 003°43'0 0.0
2017-Nov-24 05:28N 51°27' E 003°43'0 0.0
2017-Nov-24 04:58N 51°27' E 003°43'0 0.0
2017-Nov-24 04:28N 51°27' E 003°43'0 0.0
2017-Nov-24 03:58N 51°27' E 003°43'0 0.0
2017-Nov-24 03:22N 51°27' E 003°43'0 0.0
2017-Nov-24 02:58N 51°27' E 003°43'0 0.0
2017-Nov-24 02:28N 51°27' E 003°43'0 0.0
2017-Nov-24 01:46N 51°27' E 003°43'0 0.0
2017-Nov-24 01:28N 51°27' E 003°43'0 0.0
2017-Nov-24 00:55N 51°27' E 003°43'0 0.0
2017-Nov-24 00:28N 51°27' E 003°43'0 0.0
2017-Nov-23 23:58N 51°27' E 003°43'0 0.0
2017-Nov-23 23:28N 51°27' E 003°43'0 0.0
2017-Nov-23 22:58N 51°27' E 003°43'0 0.0
2017-Nov-23 22:28N 51°27' E 003°43'0 0.0
2017-Nov-23 21:58N 51°27' E 003°43'0 0.0
2017-Nov-23 21:22N 51°27' E 003°43'0 0.0
2017-Nov-23 20:55N 51°27' E 003°43'0 0.0
2017-Nov-23 20:28N 51°27' E 003°43'0 0.0
2017-Nov-23 19:52N 51°27' E 003°43'0 0.0
2017-Nov-23 19:28N 51°27' E 003°43'0 0.0
2017-Nov-23 18:58N 51°27' E 003°43'0 0.0
2017-Nov-23 18:25N 51°27' E 003°43'0 0.0
2017-Nov-23 17:58N 51°27' E 003°43'0 0.0
2017-Nov-23 17:25N 51°27' E 003°43'0 0.0
2017-Nov-23 16:58N 51°27' E 003°43'0 0.0
2017-Nov-23 16:25N 51°27' E 003°43'0 0.0
2017-Nov-23 15:58N 51°27' E 003°43'0 0.0
2017-Nov-23 15:28N 51°27' E 003°43'0 0.0
2017-Nov-23 14:58N 51°27' E 003°43'0 0.0
2017-Nov-23 14:22N 51°27' E 003°43'0 0.0
2017-Nov-23 13:58N 51°27' E 003°43'0 0.0
2017-Nov-23 13:28N 51°27' E 003°43'0 0.0
2017-Nov-23 12:55N 51°27' E 003°43'0 0.0
2017-Nov-23 12:28N 51°27' E 003°43'0 0.0
2017-Nov-23 11:55N 51°27' E 003°43'0 0.0
2017-Nov-23 11:25N 51°27' E 003°43'0 0.0
2017-Nov-23 10:58N 51°27' E 003°43'0 0.0
2017-Nov-23 10:28N 51°27' E 003°43'0 0.0
2017-Nov-23 09:58N 51°27' E 003°43'0 0.0
2017-Nov-23 09:28N 51°27' E 003°43'0 0.0
2017-Nov-23 08:58N 51°27' E 003°43'0 0.0
2017-Nov-23 08:28N 51°27' E 003°43'0 0.0
2017-Nov-23 07:58N 51°27' E 003°43'0 0.0
2017-Nov-23 07:28N 51°27' E 003°43'0 0.0
2017-Nov-23 06:58N 51°27' E 003°43'0 0.0
2017-Nov-23 06:28N 51°27' E 003°43'0 0.0
2017-Nov-23 05:58N 51°27' E 003°43'0 0.0
2017-Nov-23 05:28N 51°27' E 003°43'0 0.0
2017-Nov-23 04:58N 51°27' E 003°43'0 0.0
2017-Nov-23 04:28N 51°27' E 003°43'0 0.0
2017-Nov-23 03:58N 51°27' E 003°43'0 0.0
2017-Nov-23 03:28N 51°27' E 003°43'0 0.0
2017-Nov-23 02:58N 51°27' E 003°43'0 0.0
2017-Nov-23 02:28N 51°27' E 003°43'0 0.0
2017-Nov-23 01:58N 51°27' E 003°43'0 0.0
2017-Nov-23 01:28N 51°27' E 003°43'0 0.0
2017-Nov-23 00:55N 51°27' E 003°43'0 0.0
2017-Nov-23 00:28N 51°27' E 003°43'0 0.0
2017-Nov-22 23:58N 51°27' E 003°43'0 0.0
2017-Nov-22 23:28N 51°27' E 003°43'0 0.0
2017-Nov-22 22:58N 51°27' E 003°43'0 0.0
2017-Nov-22 22:28N 51°27' E 003°43'0 0.0
2017-Nov-22 21:58N 51°27' E 003°43'0 0.0
2017-Nov-22 21:28N 51°27' E 003°43'0 0.0
2017-Nov-22 20:52N 51°27' E 003°43'0 0.0
2017-Nov-22 20:28N 51°27' E 003°43'0 0.0
2017-Nov-22 19:58N 51°27' E 003°43'0 0.0
2017-Nov-22 19:28N 51°27' E 003°43'  
2017-Nov-20 00:28N 51°27' E 003°43'0 0.0
2017-Nov-19 23:58N 51°27' E 003°43'0 0.0
2017-Nov-19 23:25N 51°27' E 003°43'0 0.0
2017-Nov-19 22:58N 51°27' E 003°43'0 0.0
2017-Nov-19 22:28N 51°27' E 003°43'0 0.0
2017-Nov-19 21:58N 51°27' E 003°43'0 0.0
2017-Nov-19 21:28N 51°27' E 003°43'0 0.0
2017-Nov-19 20:58N 51°27' E 003°43'0 0.0
2017-Nov-19 20:28N 51°27' E 003°43'0 0.0
2017-Nov-19 19:58N 51°27' E 003°43'0 0.0
2017-Nov-19 19:28N 51°27' E 003°43'0 0.0
2017-Nov-19 18:58N 51°27' E 003°43'0 0.0
2017-Nov-19 18:28N 51°27' E 003°43'0 0.0
2017-Nov-19 18:01N 51°27' E 003°43'0 0.0
2017-Nov-19 17:28N 51°27' E 003°43'0 0.0
2017-Nov-19 16:55N 51°27' E 003°43'0 0.0
2017-Nov-19 16:28N 51°27' E 003°43'0 0.0
2017-Nov-19 16:01N 51°27' E 003°43'0 0.0
2017-Nov-19 15:28N 51°27' E 003°43'0 0.0
2017-Nov-19 15:01N 51°27' E 003°43'0 0.0
2017-Nov-19 14:16N 51°27' E 003°43'0 0.0
2017-Nov-19 13:58N 51°27' E 003°43'0 0.0
2017-Nov-19 13:25N 51°27' E 003°43'0 0.0
2017-Nov-19 12:58N 51°27' E 003°43'0 0.0
2017-Nov-19 12:28N 51°27' E 003°43'0 0.0
2017-Nov-19 12:01N 51°27' E 003°43'0 0.0
2017-Nov-19 11:22N 51°27' E 003°43'0 0.0
2017-Nov-19 11:01N 51°27' E 003°43'0 0.0
2017-Nov-19 10:31N 51°27' E 003°43'0 0.0
2017-Nov-19 09:58N 51°27' E 003°43'0 0.0
2017-Nov-19 09:31N 51°27' E 003°43'0 0.0
2017-Nov-19 08:58N 51°27' E 003°43'0 0.0
2017-Nov-19 08:28N 51°27' E 003°43'0 0.0
2017-Nov-19 07:58N 51°27' E 003°43'0 0.0
2017-Nov-19 07:31N 51°27' E 003°43'0 0.0
2017-Nov-19 07:00N 51°27' E 003°43'0 0.0
2017-Nov-19 06:30N 51°27' E 003°43'0 0.0
2017-Nov-19 06:00N 51°27' E 003°43'0 0.0
2017-Nov-19 05:28N 51°27' E 003°43'0 0.0
2017-Nov-19 05:00N 51°27' E 003°43'0 0.0
2017-Nov-19 04:27N 51°27' E 003°43'0 0.0
2017-Nov-19 04:00N 51°27' E 003°43'0 0.0
2017-Nov-19 03:27N 51°27' E 003°43'0 0.0
2017-Nov-19 02:58N 51°27' E 003°43'0 0.0
2017-Nov-19 02:28N 51°27' E 003°43'0 0.0
2017-Nov-19 02:01N 51°27' E 003°43'0 0.0
2017-Nov-19 01:31N 51°27' E 003°43'0 0.0
2017-Nov-19 01:00N 51°27' E 003°43'0 0.0
2017-Nov-19 00:28N 51°27' E 003°43'0 0.0
2017-Nov-19 00:00N 51°27' E 003°43'0 0.0
2017-Nov-18 23:27N 51°27' E 003°43'0 0.0
2017-Nov-18 22:57N 51°27' E 003°43'0 0.0
2017-Nov-18 22:30N 51°27' E 003°43'0 0.0
2017-Nov-18 21:57N 51°27' E 003°43'0 0.0
2017-Nov-18 21:27N 51°27' E 003°43'0 0.0
2017-Nov-18 20:57N 51°27' E 003°43'0 0.0
2017-Nov-18 20:30N 51°27' E 003°43'0 0.0
2017-Nov-18 20:00N 51°27' E 003°43'0 0.0
2017-Nov-18 19:31N 51°27' E 003°43'0 0.0
2017-Nov-18 19:01N 51°27' E 003°43'0 0.0
2017-Nov-18 18:30N 51°27' E 003°43'0 0.0
2017-Nov-18 18:00N 51°27' E 003°43'0 0.0
2017-Nov-18 17:30N 51°27' E 003°43'0 0.0
2017-Nov-18 17:00N 51°27' E 003°43'0 0.0
2017-Nov-18 16:27N 51°27' E 003°43'0 0.0
2017-Nov-18 16:00N 51°27' E 003°43'0 0.0
2017-Nov-18 15:30N 51°27' E 003°43'0 0.0
2017-Nov-18 15:01N 51°27' E 003°43'0 0.0
2017-Nov-18 14:30N 51°27' E 003°43'0 0.0
2017-Nov-18 14:00N 51°27' E 003°43'0 0.0
2017-Nov-18 13:27N 51°27' E 003°43'0 0.0
2017-Nov-18 13:00N 51°27' E 003°43'0 0.0
2017-Nov-18 12:27N 51°27' E 003°43'0 0.0
2017-Nov-18 11:57N 51°27' E 003°43'0 0.0
2017-Nov-18 11:30N 51°27' E 003°43'0 0.0
2017-Nov-18 10:57N 51°27' E 003°43'0 0.0
2017-Nov-18 10:30N 51°27' E 003°43'0 0.0
2017-Nov-18 10:00N 51°27' E 003°43'0 0.0
2017-Nov-18 09:30N 51°27' E 003°43'0 0.0
2017-Nov-18 08:57N 51°27' E 003°43'0 0.0
2017-Nov-18 08:30N 51°27' E 003°43'0 0.0
2017-Nov-18 07:57N 51°27' E 003°43'0 0.0
2017-Nov-18 07:30N 51°27' E 003°43'0 0.0
2017-Nov-18 06:51N 51°27' E 003°43'0 0.0
2017-Nov-18 06:24N 51°27' E 003°43'0 0.0
2017-Nov-18 06:00N 51°27' E 003°43'0 0.0
2017-Nov-18 05:30N 51°27' E 003°43'0 0.0
2017-Nov-18 04:57N 51°27' E 003°43'0 0.0
2017-Nov-18 04:30N 51°27' E 003°43'0 0.0
2017-Nov-18 04:00N 51°27' E 003°43'0 0.0
2017-Nov-18 03:27N 51°27' E 003°43'0 0.0
2017-Nov-18 03:00N 51°27' E 003°43'0 0.0
2017-Nov-18 02:30N 51°27' E 003°43'0 0.0
2017-Nov-18 02:00N 51°27' E 003°43'0 0.0
2017-Nov-18 01:30N 51°27' E 003°43'0 0.0
2017-Nov-18 01:00N 51°27' E 003°43'0 0.0
2017-Nov-18 00:27N 51°27' E 003°43'0 0.0
2017-Nov-17 23:57N 51°27' E 003°43'0 0.0
2017-Nov-17 23:30N 51°27' E 003°43'0 0.0
2017-Nov-17 23:00N 51°27' E 003°43'0 0.0
2017-Nov-17 22:27N 51°27' E 003°43'0 0.0
2017-Nov-17 22:00N 51°27' E 003°43'0 0.0
2017-Nov-17 21:30N 51°27' E 003°43'0 0.0
2017-Nov-17 21:00N 51°27' E 003°43'0 0.0
2017-Nov-17 20:30N 51°27' E 003°43'0 0.0
2017-Nov-17 20:00N 51°27' E 003°43'0 0.0
2017-Nov-17 19:21N 51°27' E 003°43'0 0.0
2017-Nov-17 19:00N 51°27' E 003°43'0 0.0
2017-Nov-17 18:30N 51°27' E 003°43'0 0.0
2017-Nov-17 17:57N 51°27' E 003°43'0 0.0
2017-Nov-17 17:27N 51°27' E 003°43'0 0.0
2017-Nov-17 17:00N 51°27' E 003°43'0 0.0
2017-Nov-17 16:27N 51°27' E 003°43'0 0.0
2017-Nov-17 15:57N 51°27' E 003°43'0 0.0
2017-Nov-17 15:30N 51°27' E 003°43'0 0.0
2017-Nov-17 15:00N 51°27' E 003°43'0 0.0
2017-Nov-17 14:30N 51°27' E 003°43'0 0.0
2017-Nov-17 14:00N 51°27' E 003°43'0 0.0
2017-Nov-17 13:30N 51°27' E 003°43'0 0.0
2017-Nov-17 12:57N 51°27' E 003°43'0 0.0
2017-Nov-17 12:30N 51°27' E 003°43'0 0.0
2017-Nov-17 12:00N 51°27' E 003°43'0 0.0
2017-Nov-17 11:30N 51°27' E 003°43'0 0.0
2017-Nov-17 11:00N 51°27' E 003°43'0 0.0
2017-Nov-17 10:30N 51°27' E 003°43'0 0.0
2017-Nov-17 10:00N 51°27' E 003°43'0 0.0
2017-Nov-17 09:21N 51°27' E 003°43'0 0.0
2017-Nov-17 09:00N 51°27' E 003°43'0 0.0
2017-Nov-17 08:27N 51°27' E 003°43'0 0.0
2017-Nov-17 07:57N 51°27' E 003°43'0 0.0
2017-Nov-17 07:27N 51°27' E 003°43'0 0.0
2017-Nov-17 07:00N 51°27' E 003°43'0 0.0
2017-Nov-17 06:24N 51°27' E 003°43'0 0.0
2017-Nov-17 06:00N 51°27' E 003°43'0 0.0
2017-Nov-17 05:30N 51°27' E 003°43'0 0.0
2017-Nov-17 05:00N 51°27' E 003°43'0 0.0
2017-Nov-17 04:24N 51°27' E 003°43'0 0.0
2017-Nov-17 03:54N 51°27' E 003°43'0 0.0
2017-Nov-17 03:30N 51°27' E 003°43'0 0.0
2017-Nov-17 03:00N 51°27' E 003°43'0 0.0
2017-Nov-17 02:30N 51°27' E 003°43'0 0.0
2017-Nov-17 02:00N 51°27' E 003°43'0 0.0
2017-Nov-17 01:30N 51°27' E 003°43'0 0.0
2017-Nov-17 01:00N 51°27' E 003°43'0 0.0
2017-Nov-17 00:24N 51°27' E 003°43'0 0.0
2017-Nov-17 00:00N 51°27' E 003°43'0 0.0
2017-Nov-16 23:30N 51°27' E 003°43'0 0.0
2017-Nov-16 23:00N 51°27' E 003°43'0 0.0
2017-Nov-16 22:30N 51°27' E 003°43'0 0.0
2017-Nov-16 22:00N 51°27' E 003°43'0 0.0
2017-Nov-16 21:27N 51°27' E 003°43'0 0.0
2017-Nov-16 21:00N 51°27' E 003°43'0 0.0
2017-Nov-16 20:30N 51°27' E 003°43'0 0.0
2017-Nov-16 20:00N 51°27' E 003°43'0 0.0
2017-Nov-16 19:30N 51°27' E 003°43'0 0.0
2017-Nov-16 18:54N 51°27' E 003°43'0 0.0
2017-Nov-16 18:30N 51°27' E 003°43'0 0.0
2017-Nov-16 18:00N 51°27' E 003°43'0 0.0
2017-Nov-16 17:30N 51°27' E 003°43'0 0.0
2017-Nov-16 17:00N 51°27' E 003°43'0 0.0
2017-Nov-16 16:30N 51°27' E 003°43'0 0.0
2017-Nov-16 15:57N 51°27' E 003°43'0 0.0
2017-Nov-16 15:30N 51°27' E 003°43'0 0.0
2017-Nov-16 14:57N 51°27' E 003°43'0 0.0
2017-Nov-16 14:27N 51°27' E 003°43'0 0.0
2017-Nov-16 14:00N 51°27' E 003°43'0 0.0
2017-Nov-16 13:30N 51°27' E 003°43'0 0.0
2017-Nov-16 13:00N 51°27' E 003°43'0 0.0
2017-Nov-16 12:09N 51°27' E 003°43'0 0.0
2017-Nov-16 11:57N 51°27' E 003°43'0 0.0
2017-Nov-16 11:27N 51°27' E 003°43'0 0.0
2017-Nov-16 11:00N 51°27' E 003°43'0 0.0
2017-Nov-16 10:24N 51°27' E 003°43'0 0.0
2017-Nov-16 10:00N 51°27' E 003°43'0 0.0
2017-Nov-16 09:27N 51°27' E 003°43'0 0.0
2017-Nov-16 08:54N 51°27' E 003°43'0 0.0
2017-Nov-16 08:27N 51°27' E 003°43'  
Track history (hours):
 
Tides and Currents Weather Stations Pressure Air Temp Water Temp Dewpoint Dewpoint Depression Visibility Wind Speed Wind Dir Waves Ship Positions

King Barley

Last reported at 2017-Nov-26 08:17 UTC. Time now 2017-Dec-14 02:42 UTC.
Position N 49°41' W 003°53'.
Warning: this ship's position is 17 days out of date.

Length 229 m; draft 7.2 m.

Type: Cargo ship. MMSI: 373049000.

Date/timePositionNaut miles runAvg speedWind from/ knotsBaromVisibWave heightAir tempDewpointWater temp
2017-Nov-26 08:17N 49°41' W 003°53'413.7
2017-Nov-26 08:00N 49°42' W 003°48'714.0
2017-Nov-26 07:30N 49°46' W 003°38'714.5
2017-Nov-26 07:01N 49°49' W 003°28'714.7
2017-Nov-26 06:30N 49°53' W 003°18'714.9
2017-Nov-26 06:01N 49°56' W 003°08'714.5
2017-Nov-26 05:30N 49°59' W 002°58'715.0
2017-Nov-26 05:01N 50°01' W 002°47'714.9
2017-Nov-26 04:30N 50°04' W 002°35'1814.3
2017-Nov-26 03:13N 50°09' W 002°08'613.6
2017-Nov-26 02:49N 50°10' W 001°60'413.2
2017-Nov-26 02:30N 50°11' W 001°53'612.8
2017-Nov-26 02:00N 50°13' W 001°44'612.5
2017-Nov-26 01:30N 50°14' W 001°34'611.9
2017-Nov-26 01:00N 50°15' W 001°25'611.9
2017-Nov-26 00:31N 50°16' W 001°16'1011.8
2017-Nov-25 23:40N 50°19' W 001°01'812.2
2017-Nov-25 23:02N 50°21' W 000°50'012.7
2017-Nov-25 23:00N 50°21' W 000°49'612.7
2017-Nov-25 22:30N 50°23' W 000°39'613.1
2017-Nov-25 22:00N 50°25' W 000°30'713.6
2017-Nov-25 21:30N 50°26' W 000°19'714.0
2017-Nov-25 20:58N 50°28' W 000°08'714.3
2017-Nov-25 20:30N 50°30' E 000°02'714.5
2017-Nov-25 20:00N 50°32' E 000°13'714.7
2017-Nov-25 19:31N 50°34' E 000°24'714.7
2017-Nov-25 19:00N 50°36' E 000°36'714.6
2017-Nov-25 18:31N 50°40' E 000°45'714.4
2017-Nov-25 18:00N 50°44' E 000°54'714.1
2017-Nov-25 17:30N 50°49' E 001°03'713.7
2017-Nov-25 17:00N 50°54' E 001°10'713.2
2017-Nov-25 16:30N 50°59' E 001°18'612.5
2017-Nov-25 16:00N 51°03' E 001°25'612.3
2017-Nov-25 15:30N 51°07' E 001°33'612.6
2017-Nov-25 15:01N 51°11' E 001°41'612.9
2017-Nov-25 14:30N 51°15' E 001°48'714.0
2017-Nov-25 14:00N 51°21' E 001°54'612.2
2017-Nov-25 13:30N 51°25' E 002°02'713.3
2017-Nov-25 13:00N 51°21' E 002°11'713.5
2017-Nov-25 12:31N 51°21' E 002°22'714.6
2017-Nov-25 12:00N 51°23' E 002°33'712.7
2017-Nov-25 11:27N 51°23' E 002°44'511.9
2017-Nov-25 11:00N 51°25' E 002°52'713.4
2017-Nov-25 10:30N 51°25' E 003°03'714.0
2017-Nov-25 10:01N 51°25' E 003°14'714.9
2017-Nov-25 09:30N 51°25' E 003°26'714.7
2017-Nov-25 09:01N 51°26' E 003°38'3 5.8
2017-Nov-25 08:30N 51°27' E 003°42'1 1.6
2017-Nov-25 08:00N 51°27' E 003°43'0 0.1
2017-Nov-25 07:28N 51°27' E 003°43'0 0.0
2017-Nov-25 06:58N 51°27' E 003°43'0 0.0
2017-Nov-25 06:28N 51°27' E 003°43'0 0.0
2017-Nov-25 05:58N 51°27' E 003°43'0 0.0
2017-Nov-25 05:28N 51°27' E 003°43'0 0.0
2017-Nov-25 04:58N 51°27' E 003°43'0 0.0
2017-Nov-25 04:28N 51°27' E 003°43'0 0.0
2017-Nov-25 03:58N 51°27' E 003°43'0 0.0
2017-Nov-25 03:28N 51°27' E 003°43'0 0.0
2017-Nov-25 02:58N 51°27' E 003°43'0 0.0
2017-Nov-25 02:28N 51°27' E 003°43'0 0.0
2017-Nov-25 01:58N 51°27' E 003°43'0 0.0
2017-Nov-25 01:28N 51°27' E 003°43'0 0.0
2017-Nov-25 00:55N 51°27' E 003°43'0 0.0
2017-Nov-25 00:28N 51°27' E 003°43'0 0.0
2017-Nov-24 23:58N 51°27' E 003°43'0 0.0
2017-Nov-24 23:28N 51°27' E 003°43'0 0.0
2017-Nov-24 22:58N 51°27' E 003°43'0 0.0
2017-Nov-24 22:28N 51°27' E 003°43'0 0.0
2017-Nov-24 21:58N 51°27' E 003°43'0 0.0
2017-Nov-24 21:28N 51°27' E 003°43'0 0.0
2017-Nov-24 20:58N 51°27' E 003°43'0 0.0
2017-Nov-24 20:28N 51°27' E 003°43'0 0.0
2017-Nov-24 19:58N 51°27' E 003°43'0 0.0
2017-Nov-24 19:28N 51°27' E 003°43'0 0.0
2017-Nov-24 18:58N 51°27' E 003°43'0 0.0
2017-Nov-24 18:28N 51°27' E 003°43'0 0.0
2017-Nov-24 17:58N 51°27' E 003°43'0 0.0
2017-Nov-24 17:28N 51°27' E 003°43'0 0.0
2017-Nov-24 16:58N 51°27' E 003°43'0 0.0
2017-Nov-24 16:28N 51°27' E 003°43'0 0.0
2017-Nov-24 15:58N 51°27' E 003°43'0 0.0
2017-Nov-24 15:28N 51°27' E 003°43'0 0.0
2017-Nov-24 14:58N 51°27' E 003°43'0 0.0
2017-Nov-24 14:28N 51°27' E 003°43'0 0.0
2017-Nov-24 13:58N 51°27' E 003°43'0 0.0
2017-Nov-24 13:25N 51°27' E 003°43'0 0.0
2017-Nov-24 12:58N 51°27' E 003°43'0 0.0
2017-Nov-24 12:28N 51°27' E 003°43'0 0.0
2017-Nov-24 11:52N 51°27' E 003°43'0 0.0
2017-Nov-24 11:22N 51°27' E 003°43'0 0.0
2017-Nov-24 10:58N 51°27' E 003°43'0 0.0
2017-Nov-24 10:28N 51°27' E 003°43'0 0.0
2017-Nov-24 09:58N 51°27' E 003°43'0 0.0
2017-Nov-24 09:28N 51°27' E 003°43'0 0.0
2017-Nov-24 08:58N 51°27' E 003°43'0 0.0
2017-Nov-24 08:22N 51°27' E 003°43'0 0.0
2017-Nov-24 07:58N 51°27' E 003°43'0 0.0
2017-Nov-24 07:28N 51°27' E 003°43'0 0.0
2017-Nov-24 06:52N 51°27' E 003°43'0 0.0
2017-Nov-24 06:28N 51°27' E 003°43'0 0.0
2017-Nov-24 05:58N 51°27' E 003°43'0 0.0
2017-Nov-24 05:28N 51°27' E 003°43'0 0.0
2017-Nov-24 04:58N 51°27' E 003°43'0 0.0
2017-Nov-24 04:28N 51°27' E 003°43'0 0.0
2017-Nov-24 03:58N 51°27' E 003°43'0 0.0
2017-Nov-24 03:22N 51°27' E 003°43'0 0.0
2017-Nov-24 02:58N 51°27' E 003°43'0 0.0
2017-Nov-24 02:28N 51°27' E 003°43'0 0.0
2017-Nov-24 01:46N 51°27' E 003°43'0 0.0
2017-Nov-24 01:28N 51°27' E 003°43'0 0.0
2017-Nov-24 00:55N 51°27' E 003°43'0 0.0
2017-Nov-24 00:28N 51°27' E 003°43'0 0.0
2017-Nov-23 23:58N 51°27' E 003°43'0 0.0
2017-Nov-23 23:28N 51°27' E 003°43'0 0.0
2017-Nov-23 22:58N 51°27' E 003°43'0 0.0
2017-Nov-23 22:28N 51°27' E 003°43'0 0.0
2017-Nov-23 21:58N 51°27' E 003°43'0 0.0
2017-Nov-23 21:22N 51°27' E 003°43'0 0.0
2017-Nov-23 20:55N 51°27' E 003°43'0 0.0
2017-Nov-23 20:28N 51°27' E 003°43'0 0.0
2017-Nov-23 19:52N 51°27' E 003°43'0 0.0
2017-Nov-23 19:28N 51°27' E 003°43'0 0.0
2017-Nov-23 18:58N 51°27' E 003°43'0 0.0
2017-Nov-23 18:25N 51°27' E 003°43'0 0.0
2017-Nov-23 17:58N 51°27' E 003°43'0 0.0
2017-Nov-23 17:25N 51°27' E 003°43'0 0.0
2017-Nov-23 16:58N 51°27' E 003°43'0 0.0
2017-Nov-23 16:25N 51°27' E 003°43'0 0.0
2017-Nov-23 15:58N 51°27' E 003°43'0 0.0
2017-Nov-23 15:28N 51°27' E 003°43'0 0.0
2017-Nov-23 14:58N 51°27' E 003°43'0 0.0
2017-Nov-23 14:22N 51°27' E 003°43'0 0.0
2017-Nov-23 13:58N 51°27' E 003°43'0 0.0
2017-Nov-23 13:28N 51°27' E 003°43'0 0.0
2017-Nov-23 12:55N 51°27' E 003°43'0 0.0
2017-Nov-23 12:28N 51°27' E 003°43'0 0.0
2017-Nov-23 11:55N 51°27' E 003°43'0 0.0
2017-Nov-23 11:25N 51°27' E 003°43'0 0.0
2017-Nov-23 10:58N 51°27' E 003°43'0 0.0
2017-Nov-23 10:28N 51°27' E 003°43'0 0.0
2017-Nov-23 09:58N 51°27' E 003°43'0 0.0
2017-Nov-23 09:28N 51°27' E 003°43'0 0.0
2017-Nov-23 08:58N 51°27' E 003°43'0 0.0
2017-Nov-23 08:28N 51°27' E 003°43'0 0.0
2017-Nov-23 07:58N 51°27' E 003°43'0 0.0
2017-Nov-23 07:28N 51°27' E 003°43'0 0.0
2017-Nov-23 06:58N 51°27' E 003°43'0 0.0
2017-Nov-23 06:28N 51°27' E 003°43'0 0.0
2017-Nov-23 05:58N 51°27' E 003°43'0 0.0
2017-Nov-23 05:28N 51°27' E 003°43'0 0.0
2017-Nov-23 04:58N 51°27' E 003°43'0 0.0
2017-Nov-23 04:28N 51°27' E 003°43'0 0.0
2017-Nov-23 03:58N 51°27' E 003°43'0 0.0
2017-Nov-23 03:28N 51°27' E 003°43'0 0.0
2017-Nov-23 02:58N 51°27' E 003°43'0 0.0
2017-Nov-23 02:28N 51°27' E 003°43'0 0.0
2017-Nov-23 01:58N 51°27' E 003°43'0 0.0
2017-Nov-23 01:28N 51°27' E 003°43'0 0.0
2017-Nov-23 00:55N 51°27' E 003°43'0 0.0
2017-Nov-23 00:28N 51°27' E 003°43'0 0.0
2017-Nov-22 23:58N 51°27' E 003°43'0 0.0
2017-Nov-22 23:28N 51°27' E 003°43'0 0.0
2017-Nov-22 22:58N 51°27' E 003°43'0 0.0
2017-Nov-22 22:28N 51°27' E 003°43'0 0.0
2017-Nov-22 21:58N 51°27' E 003°43'0 0.0
2017-Nov-22 21:28N 51°27' E 003°43'0 0.0
2017-Nov-22 20:52N 51°27' E 003°43'0 0.0
2017-Nov-22 20:28N 51°27' E 003°43'0 0.0
2017-Nov-22 19:58N 51°27' E 003°43'0 0.0
2017-Nov-22 19:28N 51°27' E 003°43'  
2017-Nov-20 00:28N 51°27' E 003°43'0 0.0
2017-Nov-19 23:58N 51°27' E 003°43'0 0.0
2017-Nov-19 23:25N 51°27' E 003°43'0 0.0
2017-Nov-19 22:58N 51°27' E 003°43'0 0.0
2017-Nov-19 22:28N 51°27' E 003°43'0 0.0
2017-Nov-19 21:58N 51°27' E 003°43'0 0.0
2017-Nov-19 21:28N 51°27' E 003°43'0 0.0
2017-Nov-19 20:58N 51°27' E 003°43'0 0.0
2017-Nov-19 20:28N 51°27' E 003°43'0 0.0
2017-Nov-19 19:58N 51°27' E 003°43'0 0.0
2017-Nov-19 19:28N 51°27' E 003°43'0 0.0
2017-Nov-19 18:58N 51°27' E 003°43'0 0.0
2017-Nov-19 18:28N 51°27' E 003°43'0 0.0
2017-Nov-19 18:01N 51°27' E 003°43'0 0.0
2017-Nov-19 17:28N 51°27' E 003°43'0 0.0
2017-Nov-19 16:55N 51°27' E 003°43'0 0.0
2017-Nov-19 16:28N 51°27' E 003°43'0 0.0
2017-Nov-19 16:01N 51°27' E 003°43'0 0.0
2017-Nov-19 15:28N 51°27' E 003°43'0 0.0
2017-Nov-19 15:01N 51°27' E 003°43'0 0.0
2017-Nov-19 14:16N 51°27' E 003°43'0 0.0
2017-Nov-19 13:58N 51°27' E 003°43'0 0.0
2017-Nov-19 13:25N 51°27' E 003°43'0 0.0
2017-Nov-19 12:58N 51°27' E 003°43'0 0.0
2017-Nov-19 12:28N 51°27' E 003°43'0 0.0
2017-Nov-19 12:01N 51°27' E 003°43'0 0.0
2017-Nov-19 11:22N 51°27' E 003°43'0 0.0
2017-Nov-19 11:01N 51°27' E 003°43'0 0.0
2017-Nov-19 10:31N 51°27' E 003°43'0 0.0
2017-Nov-19 09:58N 51°27' E 003°43'0 0.0
2017-Nov-19 09:31N 51°27' E 003°43'0 0.0
2017-Nov-19 08:58N 51°27' E 003°43'0 0.0
2017-Nov-19 08:28N 51°27' E 003°43'0 0.0
2017-Nov-19 07:58N 51°27' E 003°43'0 0.0
2017-Nov-19 07:31N 51°27' E 003°43'0 0.0
2017-Nov-19 07:00N 51°27' E 003°43'0 0.0
2017-Nov-19 06:30N 51°27' E 003°43'0 0.0
2017-Nov-19 06:00N 51°27' E 003°43'0 0.0
2017-Nov-19 05:28N 51°27' E 003°43'0 0.0
2017-Nov-19 05:00N 51°27' E 003°43'0 0.0
2017-Nov-19 04:27N 51°27' E 003°43'0 0.0
2017-Nov-19 04:00N 51°27' E 003°43'0 0.0
2017-Nov-19 03:27N 51°27' E 003°43'0 0.0
2017-Nov-19 02:58N 51°27' E 003°43'0 0.0
2017-Nov-19 02:28N 51°27' E 003°43'0 0.0
2017-Nov-19 02:01N 51°27' E 003°43'0 0.0
2017-Nov-19 01:31N 51°27' E 003°43'0 0.0
2017-Nov-19 01:00N 51°27' E 003°43'0 0.0
2017-Nov-19 00:28N 51°27' E 003°43'0 0.0
2017-Nov-19 00:00N 51°27' E 003°43'0 0.0
2017-Nov-18 23:27N 51°27' E 003°43'0 0.0
2017-Nov-18 22:57N 51°27' E 003°43'0 0.0
2017-Nov-18 22:30N 51°27' E 003°43'0 0.0
2017-Nov-18 21:57N 51°27' E 003°43'0 0.0
2017-Nov-18 21:27N 51°27' E 003°43'0 0.0
2017-Nov-18 20:57N 51°27' E 003°43'0 0.0
2017-Nov-18 20:30N 51°27' E 003°43'0 0.0
2017-Nov-18 20:00N 51°27' E 003°43'0 0.0
2017-Nov-18 19:31N 51°27' E 003°43'0 0.0
2017-Nov-18 19:01N 51°27' E 003°43'0 0.0
2017-Nov-18 18:30N 51°27' E 003°43'0 0.0
2017-Nov-18 18:00N 51°27' E 003°43'0 0.0
2017-Nov-18 17:30N 51°27' E 003°43'0 0.0
2017-Nov-18 17:00N 51°27' E 003°43'0 0.0
2017-Nov-18 16:27N 51°27' E 003°43'0 0.0
2017-Nov-18 16:00N 51°27' E 003°43'0 0.0
2017-Nov-18 15:30N 51°27' E 003°43'0 0.0
2017-Nov-18 15:01N 51°27' E 003°43'0 0.0
2017-Nov-18 14:30N 51°27' E 003°43'0 0.0
2017-Nov-18 14:00N 51°27' E 003°43'0 0.0
2017-Nov-18 13:27N 51°27' E 003°43'0 0.0
2017-Nov-18 13:00N 51°27' E 003°43'0 0.0
2017-Nov-18 12:27N 51°27' E 003°43'0 0.0
2017-Nov-18 11:57N 51°27' E 003°43'0 0.0
2017-Nov-18 11:30N 51°27' E 003°43'0 0.0
2017-Nov-18 10:57N 51°27' E 003°43'0 0.0
2017-Nov-18 10:30N 51°27' E 003°43'0 0.0
2017-Nov-18 10:00N 51°27' E 003°43'0 0.0
2017-Nov-18 09:30N 51°27' E 003°43'0 0.0
2017-Nov-18 08:57N 51°27' E 003°43'0 0.0
2017-Nov-18 08:30N 51°27' E 003°43'0 0.0
2017-Nov-18 07:57N 51°27' E 003°43'0 0.0
2017-Nov-18 07:30N 51°27' E 003°43'0 0.0
2017-Nov-18 06:51N 51°27' E 003°43'0 0.0
2017-Nov-18 06:24N 51°27' E 003°43'0 0.0
2017-Nov-18 06:00N 51°27' E 003°43'0 0.0
2017-Nov-18 05:30N 51°27' E 003°43'0 0.0
2017-Nov-18 04:57N 51°27' E 003°43'0 0.0
2017-Nov-18 04:30N 51°27' E 003°43'0 0.0
2017-Nov-18 04:00N 51°27' E 003°43'0 0.0
2017-Nov-18 03:27N 51°27' E 003°43'0 0.0
2017-Nov-18 03:00N 51°27' E 003°43'0 0.0
2017-Nov-18 02:30N 51°27' E 003°43'0 0.0
2017-Nov-18 02:00N 51°27' E 003°43'0 0.0
2017-Nov-18 01:30N 51°27' E 003°43'0 0.0
2017-Nov-18 01:00N 51°27' E 003°43'0 0.0
2017-Nov-18 00:27N 51°27' E 003°43'0 0.0
2017-Nov-17 23:57N 51°27' E 003°43'0 0.0
2017-Nov-17 23:30N 51°27' E 003°43'0 0.0
2017-Nov-17 23:00N 51°27' E 003°43'0 0.0
2017-Nov-17 22:27N 51°27' E 003°43'0 0.0
2017-Nov-17 22:00N 51°27' E 003°43'0 0.0
2017-Nov-17 21:30N 51°27' E 003°43'0 0.0
2017-Nov-17 21:00N 51°27' E 003°43'0 0.0
2017-Nov-17 20:30N 51°27' E 003°43'0 0.0
2017-Nov-17 20:00N 51°27' E 003°43'0 0.0
2017-Nov-17 19:21N 51°27' E 003°43'0 0.0
2017-Nov-17 19:00N 51°27' E 003°43'0 0.0
2017-Nov-17 18:30N 51°27' E 003°43'0 0.0
2017-Nov-17 17:57N 51°27' E 003°43'0 0.0
2017-Nov-17 17:27N 51°27' E 003°43'0 0.0
2017-Nov-17 17:00N 51°27' E 003°43'0 0.0
2017-Nov-17 16:27N 51°27' E 003°43'0 0.0
2017-Nov-17 15:57N 51°27' E 003°43'0 0.0
2017-Nov-17 15:30N 51°27' E 003°43'0 0.0
2017-Nov-17 15:00N 51°27' E 003°43'0 0.0
2017-Nov-17 14:30N 51°27' E 003°43'0 0.0
2017-Nov-17 14:00N 51°27' E 003°43'0 0.0
2017-Nov-17 13:30N 51°27' E 003°43'0 0.0
2017-Nov-17 12:57N 51°27' E 003°43'0 0.0
2017-Nov-17 12:30N 51°27' E 003°43'0 0.0
2017-Nov-17 12:00N 51°27' E 003°43'0 0.0
2017-Nov-17 11:30N 51°27' E 003°43'0 0.0
2017-Nov-17 11:00N 51°27' E 003°43'0 0.0
2017-Nov-17 10:30N 51°27' E 003°43'0 0.0
2017-Nov-17 10:00N 51°27' E 003°43'0 0.0
2017-Nov-17 09:21N 51°27' E 003°43'0 0.0
2017-Nov-17 09:00N 51°27' E 003°43'0 0.0
2017-Nov-17 08:27N 51°27' E 003°43'0 0.0
2017-Nov-17 07:57N 51°27' E 003°43'0 0.0
2017-Nov-17 07:27N 51°27' E 003°43'0 0.0
2017-Nov-17 07:00N 51°27' E 003°43'0 0.0
2017-Nov-17 06:24N 51°27' E 003°43'0 0.0
2017-Nov-17 06:00N 51°27' E 003°43'0 0.0
2017-Nov-17 05:30N 51°27' E 003°43'0 0.0
2017-Nov-17 05:00N 51°27' E 003°43'0 0.0
2017-Nov-17 04:24N 51°27' E 003°43'0 0.0
2017-Nov-17 03:54N 51°27' E 003°43'0 0.0
2017-Nov-17 03:30N 51°27' E 003°43'0 0.0
2017-Nov-17 03:00N 51°27' E 003°43'0 0.0
2017-Nov-17 02:30N 51°27' E 003°43'0 0.0
2017-Nov-17 02:00N 51°27' E 003°43'0 0.0
2017-Nov-17 01:30N 51°27' E 003°43'0 0.0
2017-Nov-17 01:00N 51°27' E 003°43'0 0.0
2017-Nov-17 00:24N 51°27' E 003°43'0 0.0
2017-Nov-17 00:00N 51°27' E 003°43'0 0.0
2017-Nov-16 23:30N 51°27' E 003°43'0 0.0
2017-Nov-16 23:00N 51°27' E 003°43'0 0.0
2017-Nov-16 22:30N 51°27' E 003°43'0 0.0
2017-Nov-16 22:00N 51°27' E 003°43'0 0.0
2017-Nov-16 21:27N 51°27' E 003°43'0 0.0
2017-Nov-16 21:00N 51°27' E 003°43'0 0.0
2017-Nov-16 20:30N 51°27' E 003°43'0 0.0
2017-Nov-16 20:00N 51°27' E 003°43'0 0.0
2017-Nov-16 19:30N 51°27' E 003°43'0 0.0
2017-Nov-16 18:54N 51°27' E 003°43'0 0.0
2017-Nov-16 18:30N 51°27' E 003°43'0 0.0
2017-Nov-16 18:00N 51°27' E 003°43'0 0.0
2017-Nov-16 17:30N 51°27' E 003°43'0 0.0
2017-Nov-16 17:00N 51°27' E 003°43'0 0.0
2017-Nov-16 16:30N 51°27' E 003°43'0 0.0
2017-Nov-16 15:57N 51°27' E 003°43'0 0.0
2017-Nov-16 15:30N 51°27' E 003°43'0 0.0
2017-Nov-16 14:57N 51°27' E 003°43'0 0.0
2017-Nov-16 14:27N 51°27' E 003°43'0 0.0
2017-Nov-16 14:00N 51°27' E 003°43'0 0.0
2017-Nov-16 13:30N 51°27' E 003°43'0 0.0
2017-Nov-16 13:00N 51°27' E 003°43'0 0.0
2017-Nov-16 12:09N 51°27' E 003°43'0 0.0
2017-Nov-16 11:57N 51°27' E 003°43'0 0.0
2017-Nov-16 11:27N 51°27' E 003°43'0 0.0
2017-Nov-16 11:00N 51°27' E 003°43'0 0.0
2017-Nov-16 10:24N 51°27' E 003°43'0 0.0
2017-Nov-16 10:00N 51°27' E 003°43'0 0.0
2017-Nov-16 09:27N 51°27' E 003°43'0 0.0
2017-Nov-16 08:54N 51°27' E 003°43'0 0.0
2017-Nov-16 08:27N 51°27' E 003°43'  

Dump ship's entire track history